Current | Forecast
Updated: 3:00 PM JST on May 01, 2017
Observed at Kochi, Japan
Temperature 73°F
Humidity 53%
Dew Point 55°F
Wind ESE at 10 mph
Pressure 29.89 in (Steady)
Conditions Partly Cloudy
Visibility 6.2 miles
UV 6 out of 16
Clouds (FEW) : 3500 ft
Yesterday's Maximum 72°F
Yesterday's Minimum 52°F approx.
Yesterday's Heating Degree Days 3 approx.
Sunrise5:19 AM JST
Sunset6:49 PM JST
Moon Rise9:37 AM JST
Moon Set11:51 PM JST
Moon PhaseMoon Phase
Waxing Crescent
Raw METARMETAR RJOK 010600Z 12009KT 9999 FEW035 SCT/// 23/13 Q1012


Monday
. High: 72° F.
Tuesday
. High: 77° F.
Wednesday
. High: 71° F.
Thursday
. High: 73° F.
Friday
. High: 71° F.
Saturday
. High: 77° F.
Sunday
. High: 73° F.
Monday
. High: 77° F.

Units: English | Metric

Find the Weather for any City, State or Zipcode, or Country:

U.S. State List | Severe Weather | Tropical Storms | Ski Conditions
United States | Canada | Central America | South America | Asia | Europe | Australia | Africa | Islands

Weather Underground

© Copyright 2017
The Weather Company, LLC